GCTS/TFS METAR and TAF weather

Enter ICAO airport designator
Station Type Date Time Source
GCTS METAR 2019/02/23 16:30 UTC NOAA

GCTS 231630Z VRB05KT CAVOK 26/M00 Q1022 NOSIG


Station Type Date Time Source
GCTS Decoded METAR 2019/02/23 16:30 UTC NOAA

Tenerife Sur, Spain (GCTS) 28-03N 016-34W 77M
Feb 23, 2019 - 11:30 AM EST / 2019.02.23 1630 UTC
Wind: Variable at 6 MPH (5 KT):0
Visibility: greater than 7 mile(s):0
Temperature: 78 F (26 C)
Dew Point: 32 F (0 C)
Relative Humidity: 18%
Pressure (altimeter): 30.18 in. Hg (1022 hPa)
ob: GCTS 231630Z VRB05KT CAVOK 26/M00 Q1022 NOSIG
cycle: 16

Station Type Date Time Source
GCTS TAF 2019/02/23 15:27 UTC NOAA

TAF GCTS 231400Z 2315/2415 10009KT 7000 NSC TX27/2415Z TN18/2406Z PROB30
TEMPO 2315/2415 4500 HZ
BECMG 2319/2322 03010KT


Example: see airport list